Terminal Aerodrome Forecast
Issued by NWS Cleveland, OH

Home | Current Version | Previous Version | Text Only | Print | Product List | Glossary On
Versions: 1 2 3 4 5 6 7 8 9 10 11 12 13 14 15 16 17
000
FTUS41 KCLE 231127
TAFYNG
TAF
KYNG 231127Z 2312/2412 12009KT 1SM -DZ BR OVC002
     FM231300 15009KT 2SM -RA BR OVC002
     FM232100 23006KT 3SM -RA BR OVC006
     FM240100 27006KT P6SM OVC006
     FM240700 VRB04KT 4SM BR OVC003=

USA.gov is the U.S. government's official web portal to all federal, state and local government web resources and services.